createdAt,value
2022-12-18T00:00:11.397Z,99178.44
2022-12-18T00:03:39.127Z,99195.56
2022-12-18T00:06:45.274Z,99196.13
2022-12-18T00:09:50.369Z,99207.94
2022-12-18T00:12:54.417Z,99211.06
2022-12-18T00:16:04.411Z,99221.91
2022-12-18T00:19:11.381Z,99212.41
2022-12-18T00:22:21.504Z,99216.31
2022-12-18T00:25:25.412Z,99219.41
2022-12-18T00:28:30.014Z,99224.34
2022-12-18T00:31:34.444Z,99223.38
2022-12-18T00:34:39.774Z,99232.66
2022-12-18T00:37:45.061Z,99225.00
2022-12-18T00:40:51.750Z,99228.16
2022-12-18T00:43:54.196Z,99234.75
2022-12-18T00:46:58.735Z,99237.69
2022-12-18T00:50:02.430Z,99246.03
2022-12-18T00:53:09.612Z,99252.50
2022-12-18T00:56:16.116Z,99248.53
2022-12-18T00:59:21.429Z,99253.19
2022-12-18T01:02:28.160Z,99255.44
2022-12-18T01:05:34.990Z,99258.53
2022-12-18T01:08:40.878Z,99259.31
2022-12-18T01:11:44.906Z,99262.44
2022-12-18T01:14:48.720Z,99267.09
2022-12-18T01:17:54.847Z,99272.50
2022-12-18T01:20:59.111Z,99270.03
2022-12-18T01:24:05.079Z,99263.41
2022-12-18T01:27:08.710Z,99271.31
2022-12-18T01:30:14.141Z,99274.84
2022-12-18T01:33:18.004Z,99275.91
2022-12-18T01:36:24.691Z,99272.63
2022-12-18T01:39:29.601Z,99278.56
2022-12-18T01:42:35.119Z,99278.50
2022-12-18T01:45:39.746Z,99280.31
2022-12-18T01:48:47.142Z,99288.78
2022-12-18T01:51:50.810Z,99286.75
2022-12-18T01:54:58.062Z,99291.47
2022-12-18T01:58:03.806Z,99297.84
2022-12-18T02:01:07.965Z,99297.84
2022-12-18T02:04:23.993Z,99302.50
2022-12-18T02:07:57.567Z,99304.50
2022-12-18T02:11:09.564Z,99299.38
2022-12-18T02:14:22.113Z,99291.56
2022-12-18T02:17:37.880Z,99306.88
2022-12-18T02:20:49.671Z,99310.22
2022-12-18T02:24:04.290Z,99308.22
2022-12-18T02:27:15.781Z,99306.56
2022-12-18T02:30:20.460Z,99303.41
2022-12-18T02:33:29.631Z,99304.22
2022-12-18T02:36:38.325Z,99305.34
2022-12-18T02:39:46.066Z,99308.03
2022-12-18T02:42:56.436Z,99316.78
2022-12-18T02:46:23.522Z,99317.16
2022-12-18T02:49:48.711Z,99318.25
2022-12-18T02:53:07.368Z,99317.59
2022-12-18T02:56:18.165Z,99321.84
2022-12-18T02:59:30.004Z,99318.41
2022-12-18T03:02:42.573Z,99316.00
2022-12-18T03:05:56.177Z,99312.97
2022-12-18T03:09:03.579Z,99315.69
2022-12-18T03:12:25.544Z,99316.88
2022-12-18T03:15:39.601Z,99326.69
2022-12-18T03:18:51.965Z,99330.44
2022-12-18T03:21:59.207Z,99325.28
2022-12-18T03:25:06.858Z,99337.91
2022-12-18T03:28:18.261Z,99326.78
2022-12-18T03:31:28.345Z,99330.78
2022-12-18T03:34:36.271Z,99333.38
2022-12-18T03:37:43.592Z,99324.50
2022-12-18T03:40:59.306Z,99336.69
2022-12-18T03:44:14.359Z,99335.47
2022-12-18T03:47:30.442Z,99342.13
2022-12-18T03:50:48.656Z,99349.81
2022-12-18T03:54:00.432Z,99355.13
2022-12-18T03:57:20.524Z,99355.13
2022-12-18T04:00:29.018Z,99360.34
2022-12-18T04:03:46.248Z,99361.91
2022-12-18T04:06:53.001Z,99369.41
2022-12-18T04:10:03.866Z,99366.38
2022-12-18T04:13:08.830Z,99365.16
2022-12-18T04:16:13.933Z,99366.41
2022-12-18T04:19:22.075Z,99370.28
2022-12-18T04:22:28.755Z,99375.66
2022-12-18T04:25:36.746Z,99376.53
2022-12-18T04:28:48.564Z,99391.44
2022-12-18T04:31:54.061Z,99382.81
2022-12-18T04:35:00.872Z,99387.19
2022-12-18T04:38:06.254Z,99391.22
2022-12-18T04:41:10.682Z,99393.91
2022-12-18T04:44:14.491Z,99394.69
2022-12-18T04:47:18.999Z,99402.91
2022-12-18T04:50:25.470Z,99410.47
2022-12-18T04:53:29.787Z,99414.38
2022-12-18T04:56:34.169Z,99409.97
2022-12-18T04:59:39.156Z,99413.16
2022-12-18T05:02:42.995Z,99424.34
2022-12-18T05:05:51.942Z,99418.81
2022-12-18T05:08:55.943Z,99418.44
2022-12-18T05:12:00.441Z,99427.09
2022-12-18T05:15:08.239Z,99438.53
2022-12-18T05:18:13.410Z,99444.53
2022-12-18T05:21:19.010Z,99456.78
2022-12-18T05:24:24.989Z,99446.91
2022-12-18T05:27:28.626Z,99459.97
2022-12-18T05:30:35.334Z,99475.75
2022-12-18T05:33:39.697Z,99473.38
2022-12-18T05:36:50.623Z,99481.25
2022-12-18T05:39:54.628Z,99484.84
2022-12-18T05:42:59.191Z,99498.28
2022-12-18T05:46:07.256Z,99489.19
2022-12-18T05:49:11.494Z,99501.44
2022-12-18T05:52:16.866Z,99498.66
2022-12-18T05:55:20.897Z,99505.75
2022-12-18T05:58:24.316Z,99499.84
2022-12-18T06:01:29.493Z,99494.28
2022-12-18T06:04:33.579Z,99501.41
2022-12-18T06:07:39.721Z,99505.75
2022-12-18T06:10:44.293Z,99516.81
2022-12-18T06:13:57.821Z,99515.25
2022-12-18T06:17:02.656Z,99519.56
2022-12-18T06:20:08.245Z,99522.34
2022-12-18T06:23:14.117Z,99527.06
2022-12-18T06:26:24.631Z,99515.25
2022-12-18T06:29:31.373Z,99525.50
2022-12-18T06:32:36.105Z,99529.81
2022-12-18T06:35:39.677Z,99531.81
2022-12-18T06:38:46.398Z,99543.63
2022-12-18T06:41:50.193Z,99543.63
2022-12-18T06:44:55.126Z,99543.63
2022-12-18T06:47:58.758Z,99558.28
2022-12-18T06:51:03.376Z,99559.44
2022-12-18T06:54:09.216Z,99569.34
2022-12-18T06:57:13.847Z,99579.25
2022-12-18T07:00:17.778Z,99579.22
2022-12-18T07:03:22.244Z,99585.53
2022-12-18T07:06:28.149Z,97133.81
2022-12-18T07:09:33.897Z,99584.75
2022-12-18T07:12:38.236Z,99587.09
2022-12-18T07:15:42.171Z,99586.88
2022-12-18T07:18:51.107Z,99605.66
2022-12-18T07:21:55.373Z,99602.91
2022-12-18T07:25:01.070Z,99611.22
2022-12-18T07:28:05.986Z,99611.63
2022-12-18T07:31:15.348Z,99630.19
2022-12-18T07:34:19.440Z,99630.59
2022-12-18T07:37:23.291Z,99633.75
2022-12-18T07:40:29.797Z,99638.47
2022-12-18T07:43:33.859Z,99636.13
2022-12-18T07:46:37.873Z,99640.09
2022-12-18T07:49:47.061Z,99649.13
2022-12-18T07:52:51.552Z,99662.19
2022-12-18T07:56:25.897Z,99660.59
2022-12-18T07:59:24.940Z,99652.56
2022-12-18T08:02:28.954Z,99656.19
2022-12-18T08:05:33.549Z,99660.16
2022-12-18T08:08:37.692Z,99666.09
2022-12-18T08:11:46.449Z,99661.41
2022-12-18T08:14:50.101Z,99670.81
2022-12-18T08:17:54.338Z,99667.75
2022-12-18T08:20:58.841Z,99670.88
2022-12-18T08:24:04.245Z,99669.25
2022-12-18T08:27:29.043Z,99672.47
2022-12-18T08:30:38.157Z,99677.16
2022-12-18T08:33:43.590Z,99679.41
2022-12-18T08:36:48.246Z,99671.47
2022-12-18T08:39:55.045Z,99677.47
2022-12-18T08:43:19.941Z,99679.47
2022-12-18T08:46:26.639Z,99678.94
2022-12-18T08:49:36.740Z,99675.56
2022-12-18T08:52:48.318Z,99684.31
2022-12-18T08:55:54.154Z,99673.97
2022-12-18T08:59:03.296Z,99673.00
2022-12-18T09:02:08.750Z,99680.56
2022-12-18T09:05:12.800Z,99678.25
2022-12-18T09:08:17.079Z,99679.75
2022-12-18T09:11:23.951Z,99686.75
2022-12-18T09:14:29.957Z,99690.59
2022-12-18T09:17:33.941Z,99685.78
2022-12-18T09:20:38.449Z,99684.25
2022-12-18T09:23:43.728Z,99679.53
2022-12-18T09:26:47.915Z,99692.22
2022-12-18T09:29:53.567Z,99692.59
2022-12-18T09:32:58.168Z,99681.81
2022-12-18T09:36:04.150Z,99682.28
2022-12-18T09:39:09.050Z,99681.88
2022-12-18T09:42:20.333Z,99674.03
2022-12-18T09:45:28.812Z,99680.72
2022-12-18T09:48:39.816Z,99675.63
2022-12-18T09:51:49.702Z,99673.25
2022-12-18T09:54:59.376Z,99670.84
2022-12-18T09:58:09.148Z,99676.03
2022-12-18T10:01:17.526Z,99666.56
2022-12-18T10:04:22.251Z,99662.25
2022-12-18T10:07:34.979Z,99666.16
2022-12-18T10:10:46.177Z,99667.78
2022-12-18T10:13:58.257Z,99661.03
2022-12-18T10:17:16.973Z,99659.84
2022-12-18T10:20:30.778Z,99663.00
2022-12-18T10:23:46.568Z,99659.47
2022-12-18T10:26:54.666Z,99666.19
2022-12-18T10:30:00.947Z,99667.75
2022-12-18T10:33:06.511Z,99665.00
2022-12-18T10:36:11.146Z,99671.63
2022-12-18T10:39:22.400Z,99669.28
2022-12-18T10:42:30.505Z,99674.06
2022-12-18T10:45:34.665Z,99670.50
2022-12-18T10:48:49.523Z,99660.56
2022-12-18T10:51:55.480Z,99673.63
2022-12-18T10:55:06.113Z,99670.88
2022-12-18T10:58:26.768Z,99674.88
2022-12-18T11:01:48.626Z,99667.78
2022-12-18T11:04:54.998Z,99673.69
2022-12-18T11:08:01.104Z,99678.84
2022-12-18T11:11:05.365Z,99683.53
2022-12-18T11:14:22.055Z,99684.34
2022-12-18T11:17:33.802Z,99686.69
2022-12-18T11:20:41.627Z,99682.72
2022-12-18T11:23:54.028Z,99683.16
2022-12-18T11:26:59.992Z,99682.72
2022-12-18T11:30:12.134Z,99692.97
2022-12-18T11:33:23.241Z,99686.69
2022-12-18T11:36:38.953Z,99679.53
2022-12-18T11:39:50.285Z,99683.88
2022-12-18T11:43:02.034Z,99669.69
2022-12-18T11:46:13.485Z,99677.75
2022-12-18T11:49:36.022Z,99678.63
2022-12-18T11:53:13.815Z,99673.91
2022-12-18T11:56:34.129Z,99677.56
2022-12-18T11:59:50.816Z,99673.34
2022-12-18T12:03:23.630Z,99678.91
2022-12-18T12:06:49.853Z,99683.44
2022-12-18T12:10:12.290Z,99682.66
2022-12-18T12:13:30.372Z,99662.53
2022-12-18T12:16:41.163Z,99662.19
2022-12-18T12:20:00.163Z,99674.03
2022-12-18T12:23:16.265Z,99665.34
2022-12-18T12:26:30.081Z,99652.31
2022-12-18T12:29:49.352Z,99665.31
2022-12-18T12:33:12.355Z,99662.19
2022-12-18T12:36:26.370Z,99668.50
2022-12-18T12:39:37.230Z,99657.03
2022-12-18T12:43:13.570Z,99648.00
2022-12-18T12:46:27.319Z,99645.63
2022-12-18T12:49:40.774Z,99653.50
2022-12-18T12:52:55.765Z,99662.84
2022-12-18T12:56:02.099Z,99666.84
2022-12-18T12:59:18.866Z,99669.53
2022-12-18T13:02:31.362Z,99662.84
2022-12-18T13:05:46.014Z,99676.31
2022-12-18T13:08:58.972Z,99673.56
2022-12-18T13:12:23.175Z,99672.41
2022-12-18T13:15:36.718Z,99685.03
2022-12-18T13:18:51.542Z,99682.00
2022-12-18T13:21:58.177Z,99675.91
2022-12-18T13:25:02.922Z,99687.28
2022-12-18T13:28:10.813Z,99686.66
2022-12-18T13:31:37.653Z,99683.09
2022-12-18T13:34:43.018Z,99682.84
2022-12-18T13:37:54.506Z,99680.19
2022-12-18T13:41:00.529Z,99699.31
2022-12-18T13:44:15.074Z,99691.19
2022-12-18T13:47:30.498Z,99688.34
2022-12-18T13:50:44.796Z,99696.31
2022-12-18T13:53:54.305Z,99693.19
2022-12-18T13:56:58.136Z,99695.06
2022-12-18T14:00:31.374Z,99708.88
2022-12-18T14:03:35.036Z,99706.09
2022-12-18T14:06:41.548Z,99720.97
2022-12-18T14:09:50.038Z,99719.41
2022-12-18T14:13:00.957Z,99722.69
2022-12-18T14:16:10.556Z,99726.66
2022-12-18T14:19:18.118Z,99728.97
2022-12-18T14:22:28.940Z,99731.16
2022-12-18T14:25:34.647Z,99733.50
2022-12-18T14:28:46.151Z,99735.22
2022-12-18T14:32:14.976Z,99749.75
2022-12-18T14:35:21.042Z,99742.84
2022-12-18T14:38:32.849Z,99745.16
2022-12-18T14:41:37.675Z,99742.81
2022-12-18T14:45:05.036Z,99750.13
2022-12-18T14:48:11.454Z,99749.28
2022-12-18T14:51:22.262Z,99760.66
2022-12-18T14:54:30.472Z,99761.50
2022-12-18T14:57:39.149Z,99762.69
2022-12-18T15:00:45.128Z,99769.41
2022-12-18T15:03:49.292Z,99778.94
2022-12-18T15:07:06.055Z,99777.06
2022-12-18T15:10:16.955Z,99778.66
2022-12-18T15:13:25.829Z,99778.66
2022-12-18T15:16:31.109Z,99774.94
2022-12-18T15:19:41.734Z,99783.66
2022-12-18T15:22:53.072Z,99781.66
2022-12-18T15:26:01.633Z,99786.22
2022-12-18T15:29:11.335Z,99788.53
2022-12-18T15:32:23.132Z,99800.09
2022-12-18T15:35:28.513Z,99801.41
2022-12-18T15:38:33.160Z,99800.31
2022-12-18T15:41:39.085Z,99804.28
2022-12-18T15:44:45.681Z,99808.28
2022-12-18T15:47:51.442Z,99818.56
2022-12-18T15:50:59.812Z,99809.78
2022-12-18T15:54:15.001Z,99818.44
2022-12-18T15:57:24.265Z,99818.47
2022-12-18T16:00:28.928Z,99820.50
2022-12-18T16:03:32.983Z,99823.25
2022-12-18T16:07:05.314Z,99827.66
2022-12-18T16:10:04.167Z,99820.59
2022-12-18T16:13:12.554Z,99817.88
2022-12-18T16:16:16.136Z,99831.63
2022-12-18T16:19:20.066Z,99832.91
2022-12-18T16:22:25.563Z,99838.44
2022-12-18T16:25:40.146Z,99831.16
2022-12-18T16:28:48.403Z,99832.75
2022-12-18T16:31:54.501Z,99845.00
2022-12-18T16:35:02.509Z,99853.78
2022-12-18T16:38:15.311Z,99850.25
2022-12-18T16:41:33.754Z,99853.03
2022-12-18T16:44:39.626Z,99854.25
2022-12-18T16:47:43.192Z,99850.28
2022-12-18T16:50:47.211Z,99856.41
2022-12-18T16:53:53.421Z,99858.03
2022-12-18T16:56:57.843Z,99859.81
2022-12-18T17:00:05.901Z,99861.91
2022-12-18T17:03:11.085Z,99856.34
2022-12-18T17:06:17.174Z,99868.22
2022-12-18T17:09:25.657Z,99869.69
2022-12-18T17:12:29.800Z,99864.13
2022-12-18T17:15:38.524Z,99865.75
2022-12-18T17:18:46.012Z,99852.41
2022-12-18T17:21:51.928Z,99865.66
2022-12-18T17:24:55.561Z,99870.88
2022-12-18T17:28:00.590Z,99879.97
2022-12-18T17:31:14.947Z,99892.22
2022-12-18T17:34:22.226Z,99892.38
2022-12-18T17:37:27.091Z,99883.72
2022-12-18T17:40:31.394Z,99896.47
2022-12-18T17:43:36.048Z,99909.25
2022-12-18T17:46:44.917Z,99911.34
2022-12-18T17:49:53.191Z,99900.00
2022-12-18T17:53:00.866Z,99926.00
2022-12-18T17:56:07.562Z,99932.91
2022-12-18T17:59:12.726Z,99934.22
2022-12-18T18:02:19.451Z,99936.59
2022-12-18T18:05:23.760Z,99942.06
2022-12-18T18:08:29.923Z,99944.69
2022-12-18T18:11:51.112Z,99932.88
2022-12-18T18:14:56.662Z,99944.16
2022-12-18T18:18:03.605Z,99953.06
2022-12-18T18:21:09.466Z,99943.09
2022-12-18T18:24:16.127Z,99948.03
2022-12-18T18:27:19.966Z,99956.66
2022-12-18T18:30:23.917Z,99957.28
2022-12-18T18:33:29.338Z,99955.97
2022-12-18T18:36:34.707Z,99957.75
2022-12-18T18:39:39.247Z,99960.97
2022-12-18T18:42:44.985Z,99953.25
2022-12-18T18:45:50.190Z,99953.31
2022-12-18T18:48:56.958Z,99957.41
2022-12-18T18:52:04.102Z,99951.34
2022-12-18T18:55:20.052Z,99954.78
2022-12-18T18:58:31.307Z,99947.97
2022-12-18T19:01:35.639Z,99950.53
2022-12-18T19:04:46.700Z,99966.56
2022-12-18T19:07:54.797Z,99964.44
2022-12-18T19:11:00.486Z,99970.03
2022-12-18T19:14:16.073Z,99962.69
2022-12-18T19:17:34.685Z,99961.38
2022-12-18T19:21:27.941Z,99972.09
2022-12-18T19:24:49.761Z,99954.38
2022-12-18T19:28:21.293Z,99962.72
2022-12-18T19:31:31.817Z,99966.25
2022-12-18T19:34:38.767Z,99961.97
2022-12-18T19:37:44.450Z,99966.88
2022-12-18T19:40:49.222Z,99972.75
2022-12-18T19:43:53.978Z,99971.06
2022-12-18T19:47:02.980Z,99981.16
2022-12-18T19:50:08.494Z,99988.13
2022-12-18T19:53:14.208Z,99980.69
2022-12-18T19:56:21.557Z,99980.31
2022-12-18T19:59:25.327Z,99977.19
2022-12-18T20:02:31.465Z,99981.91
2022-12-18T20:05:35.325Z,99981.84
2022-12-18T20:08:42.085Z,99974.38
2022-12-18T20:11:46.288Z,99971.53
2022-12-18T20:14:50.707Z,99966.81
2022-12-18T20:17:54.526Z,99952.84
2022-12-18T20:20:58.874Z,99962.97
2022-12-18T20:24:07.450Z,99956.94
2022-12-18T20:27:17.104Z,99959.28
2022-12-18T20:30:23.437Z,99967.69
2022-12-18T20:33:28.006Z,99964.44
2022-12-18T20:36:33.043Z,99958.84
2022-12-18T20:39:44.073Z,99959.50
2022-12-18T20:42:58.767Z,99961.25
2022-12-18T20:46:04.212Z,99948.16
2022-12-18T20:49:07.954Z,99939.81
2022-12-18T20:52:13.625Z,99944.06
2022-12-18T20:55:19.608Z,99952.75
2022-12-18T20:58:23.979Z,99947.84
2022-12-18T21:01:32.846Z,99949.03
2022-12-18T21:04:37.366Z,99965.97
2022-12-18T21:07:41.779Z,99969.41
2022-12-18T21:10:47.435Z,99972.06
2022-12-18T21:13:51.653Z,99975.09
2022-12-18T21:16:56.517Z,99978.41
2022-12-18T21:20:00.822Z,99985.03
2022-12-18T21:23:15.825Z,99976.38
2022-12-18T21:26:32.180Z,99972.81
2022-12-18T21:29:38.539Z,99972.06
2022-12-18T21:33:00.789Z,99972.00
2022-12-18T21:36:05.695Z,99975.38
2022-12-18T21:39:10.890Z,99979.06
2022-12-18T21:42:36.650Z,99963.72
2022-12-18T21:45:40.280Z,99968.34
2022-12-18T21:48:48.105Z,99975.84
2022-12-18T21:51:53.993Z,99986.69
2022-12-18T21:55:00.653Z,99981.28
2022-12-18T21:58:09.854Z,99985.69
2022-12-18T22:01:15.195Z,99975.25
2022-12-18T22:04:20.126Z,99990.75
2022-12-18T22:07:26.869Z,99990.81
2022-12-18T22:10:31.571Z,99992.19
2022-12-18T22:13:37.945Z,99974.09
2022-12-18T22:16:41.902Z,99978.38
2022-12-18T22:19:47.361Z,99980.53
2022-12-18T22:22:52.109Z,99976.31
2022-12-18T22:25:55.981Z,99975.34
2022-12-18T22:29:19.520Z,99975.91
2022-12-18T22:32:31.462Z,99988.69
2022-12-18T22:35:35.787Z,99982.31
2022-12-18T22:38:39.729Z,99974.09
2022-12-18T22:41:44.169Z,99962.38
2022-12-18T22:44:50.371Z,99977.09
2022-12-18T22:47:55.003Z,99972.06
2022-12-18T22:50:59.496Z,99976.31
2022-12-18T22:54:03.479Z,99971.53
2022-12-18T22:57:08.135Z,99995.22
2022-12-18T23:00:15.747Z,99991.34
2022-12-18T23:03:21.649Z,99990.63
2022-12-18T23:06:27.639Z,99988.50
2022-12-18T23:09:32.486Z,99977.88
2022-12-18T23:12:37.624Z,99966.59
2022-12-18T23:15:48.986Z,99966.09
2022-12-18T23:18:56.974Z,99957.22
2022-12-18T23:22:03.503Z,99963.44
2022-12-18T23:25:10.988Z,99948.09
2022-12-18T23:28:15.081Z,99953.41
2022-12-18T23:31:23.646Z,99945.63
2022-12-18T23:34:27.929Z,99948.91
2022-12-18T23:37:57.464Z,99946.75
2022-12-18T23:40:56.496Z,99954.56
2022-12-18T23:44:03.402Z,99967.25
2022-12-18T23:47:08.730Z,99951.44
2022-12-18T23:50:12.563Z,99957.97
2022-12-18T23:53:16.896Z,99958.13
2022-12-18T23:56:21.304Z,99950.75
2022-12-18T23:59:25.716Z,99953.69
